Time;durP1;ratioP1;P1;durP2;ratioP2;P2;SDS_P1;SDS_P2;PMS_P1;PMS_P2;Temp;Humidity;BMP_temperature;BMP_pressure;BME280_temperature;BME280_humidity;BME280_pressure;Samples;Min_cycle;Max_cycle;Signal;HPM_P1;HPM_P2
2023/11/01 00:01:52;;;;;;;2.17;0.70;;;15.60;73.90;;;;;;2208649;58;20950;-68
2023/11/01 00:04:20;;;;;;;2.62;0.62;;;15.60;73.90;;;;;;2425437;57;21141;-68
2023/11/01 00:06:48;;;;;;;3.78;0.60;;;15.60;73.90;;;;;;2208366;58;21082;-69
2023/11/01 00:09:14;;;;;;;2.37;0.47;;;15.60;73.90;;;;;;2208146;59;21857;-69
2023/11/01 00:11:40;;;;;;;2.17;0.50;;;15.60;74.00;;;;;;2208094;59;20954;-68
2023/11/01 00:14:07;;;;;;;6.72;0.70;;;15.60;74.00;;;;;;2208486;59;20962;-68
2023/11/01 00:16:33;;;;;;;1.67;0.50;;;15.60;74.00;;;;;;2426455;57;22117;-69
2023/11/01 00:18:59;;;;;;;1.83;0.43;;;15.60;74.00;;;;;;2208397;57;20950;-68
2023/11/01 00:21:26;;;;;;;2.85;0.60;;;15.60;74.00;;;;;;2425894;57;21031;-68
2023/11/01 00:23:55;;;;;;;2.47;0.50;;;15.60;74.00;;;;;;2425499;57;20990;-68
2023/11/01 00:26:21;;;;;;;3.60;0.70;;;15.60;74.00;;;;;;2208210;59;22408;-69
2023/11/01 00:28:48;;;;;;;2.30;0.60;;;15.60;74.10;;;;;;2208379;58;20958;-68
2023/11/01 00:31:14;;;;;;;3.62;0.62;;;15.60;74.10;;;;;;2208670;58;21006;-70
2023/11/01 00:33:43;;;;;;;2.42;0.50;;;15.60;74.10;;;;;;2425938;57;20974;-70
2023/11/01 00:36:10;;;;;;;5.15;1.12;;;15.60;74.10;;;;;;2208244;59;21764;-72
2023/11/01 00:38:36;;;;;;;2.72;0.60;;;15.60;74.10;;;;;;2208721;58;20974;-73
2023/11/01 00:41:03;;;;;;;2.05;0.50;;;15.60;74.10;;;;;;2208504;59;21029;-69
2023/11/01 00:43:30;;;;;;;1.60;0.50;;;15.60;74.00;;;;;;2426166;57;20983;-69
2023/11/01 00:45:56;;;;;;;2.47;0.75;;;15.60;74.00;;;;;;2429869;56;21010;-67
2023/11/01 00:48:22;;;;;;;2.08;0.50;;;15.60;74.00;;;;;;2202732;57;21011;-68
2023/11/01 00:50:49;;;;;;;0.80;0.37;;;15.60;74.00;;;;;;2206797;59;20973;-69
2023/11/01 00:53:15;;;;;;;3.20;0.62;;;15.60;74.00;;;;;;2208417;59;21041;-69
2023/11/01 00:55:44;;;;;;;2.03;0.40;;;15.60;74.00;;;;;;2425602;57;21018;-68
2023/11/01 00:58:11;;;;;;;4.85;0.68;;;15.60;73.90;;;;;;2207504;58;20958;-68
2023/11/01 01:00:37;;;;;;;3.85;0.65;;;15.60;74.00;;;;;;2208661;59;20995;-69
2023/11/01 01:03:07;;;;;;;4.85;0.70;;;15.60;73.90;;;;;;2208086;58;21025;-68
2023/11/01 01:05:34;;;;;;;1.92;0.40;;;15.60;73.90;;;;;;2208204;59;21082;-68
2023/11/01 01:08:00;;;;;;;3.72;0.50;;;15.60;73.80;;;;;;2209050;57;21036;-68
2023/11/01 01:10:27;;;;;;;3.03;0.62;;;15.60;73.80;;;;;;2420206;56;21789;-69
2023/11/01 01:12:53;;;;;;;3.50;0.62;;;15.60;73.80;;;;;;2425933;57;21510;-68
2023/11/01 01:15:20;;;;;;;1.37;0.50;;;15.60;73.70;;;;;;2207936;59;20970;-69
2023/11/01 01:17:46;;;;;;;2.00;0.52;;;15.60;73.70;;;;;;2425556;57;21026;-69
2023/11/01 01:20:13;;;;;;;1.55;0.30;;;15.60;73.70;;;;;;2207753;59;21535;-69
2023/11/01 01:22:42;;;;;;;2.70;0.47;;;15.60;73.60;;;;;;2426551;57;21047;-70
2023/11/01 01:25:10;;;;;;;1.45;0.40;;;15.60;73.60;;;;;;2207918;58;21013;-71
2023/11/01 01:27:36;;;;;;;1.27;0.40;;;15.60;73.60;;;;;;2425989;57;21018;-70
2023/11/01 01:30:20;;;;;;;2.97;0.60;;;15.60;73.50;;;;;;2208574;58;21014;-67
2023/11/01 01:32:46;;;;;;;4.32;0.70;;;15.60;72.70;;;;;;2206759;57;20966;-71
2023/11/01 01:35:16;;;;;;;2.83;0.70;;;15.60;73.50;;;;;;2426194;57;21014;-68
2023/11/01 01:37:42;;;;;;;1.70;0.45;;;15.60;73.50;;;;;;2426123;57;20970;-70
2023/11/01 01:43:36;;;;;;;1.23;0.50;;;15.50;72.60;;;;;;2314884;57;1327069;-69
2023/11/01 01:46:09;;;;;;;1.50;0.43;;;15.50;73.30;;;;;;2429735;56;21874;-67
2023/11/01 01:48:36;;;;;;;1.42;0.43;;;15.50;73.20;;;;;;2425649;57;20958;-70
2023/11/01 01:51:05;;;;;;;1.65;0.50;;;15.50;73.40;;;;;;2207497;57;21053;-71
2023/11/01 01:53:40;;;;;;;1.27;0.40;;;15.40;73.90;;;;;;2205812;58;21054;-69
2023/11/01 01:56:08;;;;;;;1.87;0.43;;;15.50;73.00;;;;;;2424511;56;20954;-68
2023/11/01 01:58:36;;;;;;;1.85;0.40;;;15.40;73.10;;;;;;2425551;57;21014;-69
2023/11/01 02:01:05;;;;;;;3.50;0.93;;;15.40;73.10;;;;;;2204808;57;21501;-68
2023/11/01 02:03:31;;;;;;;0.50;0.30;;;15.40;73.10;;;;;;2422327;56;20958;-69
2023/11/01 02:05:57;;;;;;;2.97;0.65;;;15.40;73.10;;;;;;2209135;59;20996;-68
2023/11/01 02:09:15;;;;;;;1.98;0.50;;;15.30;73.00;;;;;;2206613;57;20958;-69
2023/11/01 02:11:44;;;;;;;0.88;0.28;;;15.30;72.30;;;;;;2208524;58;20974;-69
2023/11/01 02:14:14;;;;;;;4.28;0.90;;;15.30;72.90;;;;;;2188406;58;21690;-68
2023/11/01 02:16:41;;;;;;;2.05;0.50;;;15.30;72.90;;;;;;2208591;58;20990;-68
2023/11/01 02:19:08;;;;;;;1.83;0.60;;;15.30;73.00;;;;;;2211202;57;20954;-68
2023/11/01 02:21:35;;;;;;;1.87;0.50;;;15.30;73.10;;;;;;2208563;58;21029;-68
2023/11/01 02:24:01;;;;;;;1.17;0.30;;;15.30;73.00;;;;;;2206683;58;21557;-68
2023/11/01 02:26:30;;;;;;;2.15;0.50;;;15.30;73.10;;;;;;2207405;59;21042;-69
2023/11/01 02:28:59;;;;;;;2.08;0.50;;;15.20;73.00;;;;;;2425642;56;21014;-68
2023/11/01 02:31:26;;;;;;;1.55;0.40;;;15.20;72.90;;;;;;2203287;57;21401;-68
2023/11/01 02:33:52;;;;;;;2.30;0.50;;;15.20;73.00;;;;;;2206456;58;20997;-69
2023/11/01 02:36:59;;;;;;;2.03;0.50;;;15.20;73.00;;;;;;2201818;57;21442;-68
2023/11/01 02:39:26;;;;;;;1.35;0.50;;;15.20;72.20;;;;;;2427925;56;21007;-68
2023/11/01 02:41:52;;;;;;;2.42;0.37;;;15.20;73.00;;;;;;2425465;57;20970;-68
2023/11/01 02:45:11;;;;;;;1.02;0.50;;;15.20;73.10;;;;;;2208497;59;21034;-68
2023/11/01 02:47:49;;;;;;;1.95;0.40;;;15.10;72.30;;;;;;2424870;57;21061;-68
2023/11/01 02:50:39;;;;;;;2.08;0.43;;;15.20;72.40;;;;;;2425416;57;21018;-68
2023/11/01 02:53:06;;;;;;;2.35;0.40;;;15.10;72.20;;;;;;2422479;57;21545;-67
2023/11/01 02:55:32;;;;;;;3.50;0.60;;;15.10;73.00;;;;;;2215356;58;20977;-69
2023/11/01 02:57:58;;;;;;;1.52;0.35;;;15.10;73.10;;;;;;2208259;58;21422;-70
2023/11/01 03:00:27;;;;;;;4.32;0.50;;;15.00;72.90;;;;;;2425362;57;20986;-69
2023/11/01 03:02:57;;;;;;;2.90;0.50;;;15.00;73.00;;;;;;2204262;57;20970;-69
2023/11/01 03:05:29;;;;;;;3.12;0.47;;;15.10;73.10;;;;;;2204955;57;20994;-71
2023/11/01 03:07:56;;;;;;;0.85;0.30;;;15.00;72.70;;;;;;2201903;57;21536;-67
2023/11/01 03:10:25;;;;;;;1.70;0.43;;;15.00;73.10;;;;;;2207721;59;21049;-69
2023/11/01 03:12:54;;;;;;;1.83;0.47;;;14.90;73.00;;;;;;2206962;57;21760;-68
2023/11/01 03:15:23;;;;;;;7.53;0.52;;;14.90;73.00;;;;;;2425532;57;20958;-72
2023/11/01 03:17:49;;;;;;;1.77;0.37;;;14.90;73.50;;;;;;2202836;57;21048;-71
2023/11/01 03:20:16;;;;;;;1.55;0.50;;;15.00;73.10;;;;;;2424700;57;21607;-68
2023/11/01 03:22:46;;;;;;;1.17;0.40;;;14.90;73.00;;;;;;2208042;57;20985;-68
2023/11/01 03:25:13;;;;;;;2.90;0.45;;;14.90;73.00;;;;;;2208438;58;21896;-72
2023/11/01 03:27:41;;;;;;;2.62;0.77;;;14.90;73.10;;;;;;2208684;58;20977;-73
2023/11/01 03:30:08;;;;;;;2.00;0.40;;;14.90;73.10;;;;;;2423069;57;21483;-68
2023/11/01 03:32:34;;;;;;;2.55;0.52;;;14.90;73.20;;;;;;2200009;57;21014;-69
2023/11/01 03:35:01;;;;;;;2.08;0.40;;;14.90;73.10;;;;;;2415937;56;21081;-68
2023/11/01 03:37:27;;;;;;;3.15;0.93;;;14.90;73.20;;;;;;2425669;57;20993;-68
2023/11/01 03:39:53;;;;;;;2.67;0.68;;;14.90;73.20;;;;;;2211814;59;20961;-72
2023/11/01 03:42:21;;;;;;;1.90;0.30;;;14.90;73.20;;;;;;2207927;59;21547;-68
2023/11/01 03:44:48;;;;;;;1.00;0.30;;;14.90;73.30;;;;;;2207944;58;21871;-69
2023/11/01 03:47:14;;;;;;;1.40;0.37;;;14.90;73.20;;;;;;2425454;57;20962;-68
2023/11/01 03:49:41;;;;;;;4.03;0.60;;;14.90;73.20;;;;;;2425065;56;20994;-70
2023/11/01 03:52:21;;;;;;;1.62;0.40;;;14.90;73.20;;;;;;2208013;59;20958;-71
2023/11/01 03:54:47;;;;;;;2.97;0.40;;;14.90;72.60;;;;;;2208395;57;21023;-68
2023/11/01 03:57:14;;;;;;;1.87;0.60;;;14.80;73.10;;;;;;2209582;57;20974;-68
2023/11/01 03:59:40;;;;;;;1.80;0.40;;;14.80;73.10;;;;;;2207934;58;20981;-68
2023/11/01 04:02:06;;;;;;;1.15;0.40;;;14.80;73.10;;;;;;2418997;56;21006;-68
2023/11/01 04:04:34;;;;;;;1.42;0.40;;;14.80;73.10;;;;;;2205266;57;21789;-69
2023/11/01 04:07:00;;;;;;;1.90;0.50;;;14.80;73.00;;;;;;2209308;57;21018;-70
2023/11/01 04:09:32;;;;;;;1.52;0.40;;;14.80;73.10;;;;;;2211704;56;21491;-68
2023/11/01 04:11:59;;;;;;;0.98;0.40;;;14.80;72.80;;;;;;2419401;56;21047;-69
2023/11/01 04:14:26;;;;;;;1.60;0.40;;;14.80;73.00;;;;;;2205088;57;21097;-68
2023/11/01 04:16:55;;;;;;;2.33;0.75;;;14.60;72.80;;;;;;2209125;57;20994;-68
2023/11/01 04:19:21;;;;;;;1.75;0.50;;;14.80;73.00;;;;;;2425583;57;20961;-68
2023/11/01 04:21:48;;;;;;;3.90;0.68;;;14.80;73.00;;;;;;2208601;58;21710;-68
2023/11/01 04:25:00;;;;;;;2.03;0.60;;;14.80;73.00;;;;;;2206750;59;20992;-68
2023/11/01 04:27:26;;;;;;;1.47;0.33;;;14.80;72.20;;;;;;2425880;57;21013;-71
2023/11/01 04:29:54;;;;;;;2.95;0.47;;;14.80;72.90;;;;;;2425515;57;21473;-68
2023/11/01 04:32:28;;;;;;;2.60;0.57;;;14.70;72.70;;;;;;2207064;59;21051;-71
2023/11/01 04:34:55;;;;;;;0.93;0.40;;;14.70;72.60;;;;;;2425323;57;20966;-69
2023/11/01 04:37:24;;;;;;;2.08;0.45;;;14.70;72.60;;;;;;2208025;59;21022;-67
2023/11/01 04:39:50;;;;;;;1.58;0.30;;;14.70;72.60;;;;;;2419513;56;21012;-69
2023/11/01 04:42:16;;;;;;;1.08;0.50;;;14.60;72.40;;;;;;2201509;57;20953;-69
2023/11/01 04:44:46;;;;;;;1.08;0.30;;;14.60;72.40;;;;;;2202459;57;20978;-69
2023/11/01 04:47:13;;;;;;;1.73;0.37;;;14.60;72.40;;;;;;2208598;58;21022;-69
2023/11/01 04:49:42;;;;;;;2.37;0.40;;;14.60;72.50;;;;;;2208102;59;20982;-68
2023/11/01 04:52:09;;;;;;;0.93;0.40;;;14.50;72.50;;;;;;2425051;56;21261;-68
2023/11/01 04:54:35;;;;;;;1.17;0.30;;;14.50;72.50;;;;;;2208894;58;21396;-70
2023/11/01 04:57:01;;;;;;;3.33;0.40;;;14.50;72.40;;;;;;2201084;57;21091;-69
2023/11/01 04:59:29;;;;;;;1.00;0.20;;;14.50;72.30;;;;;;2424308;56;20954;-71
2023/11/01 05:01:56;;;;;;;1.15;0.45;;;14.40;72.20;;;;;;2425953;57;20961;-70
2023/11/01 05:04:23;;;;;;;1.33;0.20;;;14.40;72.20;;;;;;2425412;57;20966;-69
2023/11/01 05:06:50;;;;;;;0.62;0.25;;;14.40;72.10;;;;;;2208556;59;21005;-68
2023/11/01 05:09:17;;;;;;;1.83;0.30;;;14.30;72.00;;;;;;2208703;59;21066;-68
2023/11/01 05:11:45;;;;;;;1.17;0.30;;;14.30;72.00;;;;;;2208619;58;21495;-67
2023/11/01 05:14:18;;;;;;;0.98;0.30;;;14.30;72.10;;;;;;2426162;57;20958;-70
2023/11/01 05:16:46;;;;;;;1.90;0.40;;;14.20;71.90;;;;;;2207982;59;20986;-68
2023/11/01 05:19:12;;;;;;;1.25;0.30;;;14.20;72.00;;;;;;2425408;57;20942;-68
2023/11/01 05:21:38;;;;;;;2.20;0.30;;;14.20;72.10;;;;;;2424491;57;20982;-69
2023/11/01 05:24:06;;;;;;;1.15;0.30;;;14.10;72.10;;;;;;2211810;58;20986;-70
2023/11/01 05:26:35;;;;;;;1.45;0.40;;;14.10;72.00;;;;;;2208045;59;20989;-69
2023/11/01 05:29:02;;;;;;;0.60;0.22;;;14.10;72.00;;;;;;2425897;57;20990;-70
2023/11/01 05:31:28;;;;;;;1.77;0.40;;;14.10;72.00;;;;;;2209212;57;21025;-67
2023/11/01 05:33:55;;;;;;;2.45;0.57;;;14.00;72.00;;;;;;2207847;59;21066;-70
2023/11/01 05:36:21;;;;;;;1.08;0.43;;;14.00;72.00;;;;;;2201477;57;21507;-69
2023/11/01 05:38:47;;;;;;;1.15;0.40;;;14.00;72.10;;;;;;2208602;59;20993;-68
2023/11/01 05:41:14;;;;;;;2.40;0.50;;;14.00;72.00;;;;;;2430896;56;21411;-67
2023/11/01 05:43:43;;;;;;;2.25;0.50;;;13.90;71.90;;;;;;2208151;59;21061;-67
2023/11/01 05:49:37;;;;;;;2.72;0.50;;;13.90;71.30;;;;;;2425075;57;21070;-69
2023/11/01 05:52:34;;;;;;;2.65;0.50;;;13.80;71.80;;;;;;2208257;59;20977;-70
2023/11/01 05:55:00;;;;;;;1.00;0.40;;;13.80;71.30;;;;;;2425893;57;21099;-68
2023/11/01 05:57:33;;;;;;;2.17;0.50;;;13.70;71.80;;;;;;2208012;59;21026;-68
2023/11/01 05:59:59;;;;;;;1.17;0.40;;;13.70;71.70;;;;;;2208709;57;21319;-70
2023/11/01 06:02:25;;;;;;;1.23;0.40;;;13.70;71.80;;;;;;2207870;58;20974;-72
2023/11/01 06:04:52;;;;;;;2.58;0.77;;;13.60;71.80;;;;;;2207988;59;20934;-68
2023/11/01 06:07:18;;;;;;;3.35;1.33;;;13.60;71.80;;;;;;2206711;56;21472;-69
2023/11/01 06:10:27;;;;;;;5.28;1.58;;;13.50;71.70;;;;;;2415028;56;21538;-68
2023/11/01 06:12:53;;;;;;;3.90;1.67;;;13.50;71.10;;;;;;2208159;59;20957;-69
2023/11/01 06:15:20;;;;;;;3.95;1.10;;;13.50;71.80;;;;;;2426150;57;20967;-67
2023/11/01 06:17:47;;;;;;;4.00;1.17;;;13.50;71.90;;;;;;2425498;57;21427;-70
2023/11/01 06:20:15;;;;;;;1.75;0.52;;;13.40;71.90;;;;;;2208032;58;21108;-70
2023/11/01 06:22:41;;;;;;;2.80;0.65;;;13.50;72.10;;;;;;2211185;58;21588;-68
2023/11/01 06:25:08;;;;;;;2.25;0.70;;;13.40;72.10;;;;;;2211254;57;21050;-71
2023/11/01 06:27:44;;;;;;;1.58;0.70;;;13.40;72.20;;;;;;2415147;56;20969;-69
2023/11/01 06:30:10;;;;;;;1.60;0.57;;;13.30;72.10;;;;;;2214589;59;21006;-68
2023/11/01 06:32:37;;;;;;;2.65;0.80;;;13.30;72.20;;;;;;2427755;56;20986;-68
2023/11/01 06:35:03;;;;;;;2.20;0.60;;;13.30;72.10;;;;;;2209557;58;20978;-69
2023/11/01 06:37:33;;;;;;;2.08;0.70;;;13.30;72.20;;;;;;2425447;57;20989;-70
2023/11/01 06:40:00;;;;;;;3.15;0.70;;;13.30;72.20;;;;;;2208588;59;20958;-68
2023/11/01 06:42:27;;;;;;;3.15;0.68;;;13.20;72.10;;;;;;2210080;59;20970;-70
2023/11/01 06:44:53;;;;;;;1.45;0.60;;;13.20;72.10;;;;;;2425726;57;21935;-70
2023/11/01 06:47:20;;;;;;;1.98;0.65;;;13.20;72.10;;;;;;2425865;56;21415;-69
2023/11/01 06:50:03;;;;;;;5.30;0.60;;;13.20;72.10;;;;;;2210864;59;21169;-67
2023/11/01 06:52:30;;;;;;;1.30;0.50;;;13.20;71.90;;;;;;2207602;59;20985;-70
2023/11/01 06:54:57;;;;;;;3.67;0.68;;;13.10;72.20;;;;;;2208433;58;21006;-71
2023/11/01 06:57:23;;;;;;;1.55;0.55;;;13.10;72.20;;;;;;2208361;59;21435;-71
2023/11/01 06:59:51;;;;;;;1.67;0.60;;;13.10;72.30;;;;;;2204274;57;21066;-69
2023/11/01 07:02:17;;;;;;;0.93;0.50;;;13.20;72.50;;;;;;2206020;57;20975;-68
2023/11/01 07:04:44;;;;;;;2.83;1.05;;;13.10;72.50;;;;;;2425244;56;20995;-71
2023/11/01 07:07:11;;;;;;;3.40;1.20;;;13.10;72.60;;;;;;2207894;57;20977;-68
2023/11/01 07:09:40;;;;;;;3.33;1.23;;;13.10;72.70;;;;;;2200570;57;21026;-68
2023/11/01 07:12:07;;;;;;;2.28;1.02;;;13.10;72.80;;;;;;2204382;57;20986;-71
2023/11/01 07:14:35;;;;;;;2.25;0.88;;;13.10;72.90;;;;;;2206392;57;20969;-70
2023/11/01 07:17:02;;;;;;;2.30;0.95;;;13.10;72.90;;;;;;2208543;59;20986;-68
2023/11/01 07:19:28;;;;;;;2.12;1.10;;;13.10;73.00;;;;;;2425825;57;21054;-70
2023/11/01 07:21:54;;;;;;;2.85;1.02;;;13.10;73.10;;;;;;2415425;56;21006;-69
2023/11/01 07:24:20;;;;;;;3.58;1.33;;;13.10;73.10;;;;;;2208503;58;21089;-68
2023/11/01 07:26:47;;;;;;;3.80;1.90;;;13.10;73.20;;;;;;2207570;57;20970;-69
2023/11/01 07:29:14;;;;;;;2.53;1.30;;;13.10;73.30;;;;;;2208828;59;21706;-71
2023/11/01 07:31:40;;;;;;;2.95;1.40;;;13.10;73.40;;;;;;2208292;58;21009;-70
2023/11/01 07:34:06;;;;;;;3.33;1.62;;;13.20;73.50;;;;;;2426348;57;21084;-70
2023/11/01 07:36:32;;;;;;;4.53;1.30;;;13.20;73.60;;;;;;2425622;57;21033;-68
2023/11/01 07:39:01;;;;;;;3.97;1.75;;;13.20;73.60;;;;;;2425590;57;20994;-70
2023/11/01 07:41:27;;;;;;;3.80;1.80;;;13.20;73.60;;;;;;2208537;58;20978;-69
2023/11/01 07:43:56;;;;;;;3.87;1.80;;;13.20;73.70;;;;;;2425128;57;21882;-68
2023/11/01 07:46:23;;;;;;;5.10;2.40;;;13.30;73.80;;;;;;2208599;58;20970;-71
2023/11/01 07:48:49;;;;;;;5.20;2.42;;;13.30;73.80;;;;;;2207714;57;21508;-69
2023/11/01 07:51:16;;;;;;;4.57;2.40;;;13.30;73.90;;;;;;2205441;57;20966;-68
2023/11/01 07:53:42;;;;;;;4.97;2.35;;;13.40;74.00;;;;;;2204100;57;21041;-71
2023/11/01 07:56:09;;;;;;;4.62;2.35;;;13.40;74.10;;;;;;2425794;57;21481;-71
2023/11/01 07:58:35;;;;;;;3.78;1.90;;;13.40;74.20;;;;;;2207865;59;20962;-68
2023/11/01 08:01:03;;;;;;;3.35;1.70;;;13.40;74.20;;;;;;2208180;59;20945;-67
2023/11/01 08:03:31;;;;;;;3.70;1.75;;;13.40;74.30;;;;;;2208598;58;21049;-68
2023/11/01 08:05:58;;;;;;;3.28;1.67;;;13.50;74.40;;;;;;2207805;57;20973;-68
2023/11/01 08:08:25;;;;;;;3.37;1.80;;;13.50;74.40;;;;;;2208227;58;21021;-68
2023/11/01 08:10:51;;;;;;;2.53;1.27;;;13.60;74.60;;;;;;2205193;57;21113;-72
2023/11/01 08:13:17;;;;;;;4.68;1.15;;;13.60;74.60;;;;;;2204191;57;21038;-67
2023/11/01 08:15:44;;;;;;;3.28;0.90;;;13.60;74.60;;;;;;2207180;58;21447;-68
2023/11/01 08:18:10;;;;;;;3.10;1.08;;;13.70;74.80;;;;;;2203919;57;21022;-69
2023/11/01 08:20:37;;;;;;;3.05;0.88;;;13.70;74.80;;;;;;2202981;57;21456;-68
2023/11/01 08:23:06;;;;;;;4.05;1.20;;;13.80;74.90;;;;;;2205169;57;20993;-68
2023/11/01 08:25:32;;;;;;;2.08;1.10;;;13.80;75.00;;;;;;2426441;56;20962;-68
2023/11/01 08:28:00;;;;;;;4.93;0.90;;;13.90;75.00;;;;;;2425784;57;21014;-68
2023/11/01 08:30:26;;;;;;;2.45;0.90;;;13.90;75.00;;;;;;2202332;57;21058;-72
2023/11/01 08:32:56;;;;;;;3.30;1.02;;;13.90;75.10;;;;;;2206663;57;21484;-68
2023/11/01 08:35:23;;;;;;;2.95;1.20;;;14.00;75.20;;;;;;2425978;57;21342;-70
2023/11/01 08:37:50;;;;;;;2.72;0.85;;;14.00;75.20;;;;;;2412799;56;21066;-69
2023/11/01 08:40:20;;;;;;;2.33;1.08;;;14.10;75.30;;;;;;2207910;58;21554;-68
2023/11/01 08:42:47;;;;;;;3.43;1.00;;;14.10;75.30;;;;;;2207666;59;20962;-68
2023/11/01 08:45:18;;;;;;;3.42;1.20;;;14.20;75.40;;;;;;2208284;59;21515;-70
2023/11/01 08:47:45;;;;;;;2.72;0.82;;;14.30;75.50;;;;;;2419324;56;20953;-72
2023/11/01 08:50:12;;;;;;;3.37;1.30;;;14.30;75.50;;;;;;2203682;57;21029;-68
2023/11/01 08:52:42;;;;;;;3.22;1.00;;;14.40;75.60;;;;;;2207276;57;20974;-70
2023/11/01 08:55:14;;;;;;;2.23;0.80;;;14.40;75.50;;;;;;2208685;58;21069;-72
2023/11/01 08:57:41;;;;;;;3.22;1.00;;;14.50;75.50;;;;;;2207538;58;21050;-71
2023/11/01 09:00:12;;;;;;;2.42;0.80;;;14.50;75.50;;;;;;2207821;58;20950;-68
2023/11/01 09:02:41;;;;;;;1.95;0.80;;;14.60;75.60;;;;;;2207315;59;20971;-69
2023/11/01 09:05:08;;;;;;;2.12;0.68;;;14.70;75.70;;;;;;2425162;56;20946;-69
2023/11/01 09:07:36;;;;;;;2.80;0.70;;;14.70;75.70;;;;;;2424892;56;21177;-70
2023/11/01 09:10:04;;;;;;;2.00;0.70;;;14.80;75.70;;;;;;2416846;56;21092;-68
2023/11/01 09:12:30;;;;;;;1.73;0.70;;;14.80;75.70;;;;;;2208624;58;20982;-71
2023/11/01 09:14:57;;;;;;;2.25;0.68;;;14.90;75.80;;;;;;2204480;57;22100;-69
2023/11/01 09:17:26;;;;;;;2.42;0.70;;;14.90;75.80;;;;;;2204424;57;21489;-69
2023/11/01 09:19:53;;;;;;;1.85;0.70;;;15.00;75.80;;;;;;2207583;59;20954;-68
2023/11/01 09:22:20;;;;;;;2.22;0.70;;;15.00;75.80;;;;;;2205843;57;21031;-68
2023/11/01 09:24:46;;;;;;;1.65;0.62;;;15.10;75.90;;;;;;2202964;57;20986;-70
2023/11/01 09:27:14;;;;;;;3.42;0.85;;;15.20;75.90;;;;;;2208196;58;21524;-68
2023/11/01 09:29:40;;;;;;;3.05;0.70;;;15.20;75.80;;;;;;2207825;59;21053;-68
2023/11/01 09:32:07;;;;;;;3.15;0.90;;;15.40;75.90;;;;;;2208723;57;21424;-71
2023/11/01 09:34:36;;;;;;;2.50;0.95;;;15.40;75.90;;;;;;2202530;58;21078;-71
2023/11/01 09:37:03;;;;;;;1.55;0.70;;;15.40;75.80;;;;;;2421413;56;20961;-72
2023/11/01 09:39:30;;;;;;;3.12;1.00;;;15.40;75.90;;;;;;2208180;57;21077;-73
2023/11/01 09:42:06;;;;;;;3.55;1.05;;;15.50;75.80;;;;;;2207592;57;21014;-69
2023/11/01 09:44:32;;;;;;;1.87;0.80;;;15.60;75.60;;;;;;2425590;56;20977;-68
2023/11/01 09:46:59;;;;;;;2.15;0.82;;;15.70;75.90;;;;;;2420473;57;20985;-69
2023/11/01 09:49:26;;;;;;;2.75;0.90;;;15.60;75.70;;;;;;2201718;57;21037;-69
2023/11/01 09:51:55;;;;;;;2.37;0.90;;;15.70;75.80;;;;;;2208127;58;21022;-73
2023/11/01 09:54:22;;;;;;;3.30;0.90;;;15.70;75.70;;;;;;2208741;58;20946;-69
2023/11/01 09:56:48;;;;;;;2.15;0.80;;;15.90;76.10;;;;;;2208146;59;20990;-70
2023/11/01 09:59:15;;;;;;;2.95;0.77;;;15.90;76.10;;;;;;2423002;57;21562;-70
2023/11/01 10:01:43;;;;;;;2.95;0.90;;;15.90;76.10;;;;;;2416944;56;21013;-69
2023/11/01 10:04:09;;;;;;;2.15;0.90;;;16.00;76.30;;;;;;2208160;58;21671;-69
2023/11/01 10:06:36;;;;;;;2.20;0.80;;;16.10;76.40;;;;;;2205690;57;21081;-69
2023/11/01 10:09:08;;;;;;;2.45;0.80;;;16.10;76.30;;;;;;2206207;57;21018;-68
2023/11/01 10:11:34;;;;;;;2.78;0.73;;;16.20;76.40;;;;;;2203123;57;21005;-69
2023/11/01 10:14:01;;;;;;;1.75;0.80;;;16.30;76.40;;;;;;2208588;58;21002;-72
2023/11/01 10:16:31;;;;;;;2.03;0.82;;;16.40;76.40;;;;;;2426802;57;21797;-71
2023/11/01 10:19:00;;;;;;;2.53;0.80;;;16.40;76.40;;;;;;2421636;56;20976;-70
2023/11/01 10:21:28;;;;;;;2.00;0.70;;;16.50;76.30;;;;;;2200744;57;21745;-69
2023/11/01 10:23:58;;;;;;;2.33;0.70;;;16.60;76.40;;;;;;2425619;57;21510;-69
2023/11/01 10:26:27;;;;;;;4.15;0.88;;;16.60;76.10;;;;;;2207973;57;20990;-69
2023/11/01 10:28:54;;;;;;;3.72;0.90;;;16.70;76.20;;;;;;2419153;56;21854;-72
2023/11/01 10:31:20;;;;;;;2.83;0.93;;;16.70;76.30;;;;;;2423242;56;21034;-70
2023/11/01 10:33:48;;;;;;;3.78;1.00;;;16.80;76.30;;;;;;2200958;57;21098;-70
2023/11/01 10:36:17;;;;;;;2.40;0.88;;;16.90;76.20;;;;;;2417828;56;20950;-68
2023/11/01 10:38:45;;;;;;;2.80;1.02;;;16.90;76.10;;;;;;2427066;57;21376;-70
2023/11/01 10:41:11;;;;;;;2.47;0.85;;;17.00;75.90;;;;;;2208487;59;21017;-71
2023/11/01 10:43:38;;;;;;;2.15;0.90;;;17.00;76.00;;;;;;2208751;59;21073;-69
2023/11/01 10:46:05;;;;;;;3.85;1.00;;;17.00;75.90;;;;;;2202254;57;21495;-69
2023/11/01 10:48:31;;;;;;;2.80;0.95;;;17.10;75.70;;;;;;2426467;57;21057;-70
2023/11/01 10:50:58;;;;;;;3.90;0.80;;;17.10;75.50;;;;;;2425745;57;21027;-70
2023/11/01 10:53:34;;;;;;;4.05;0.93;;;17.20;75.40;;;;;;2209343;59;21003;-69
2023/11/01 10:56:00;;;;;;;4.47;1.05;;;17.20;74.70;;;;;;2208405;59;20953;-68
2023/11/01 10:58:28;;;;;;;2.92;1.00;;;17.20;75.20;;;;;;2418050;56;21014;-69
2023/11/01 11:01:15;;;;;;;2.90;1.08;;;17.30;75.30;;;;;;2424312;56;20946;-69
2023/11/01 11:04:09;;;;;;;4.28;1.30;;;17.30;75.00;;;;;;2205481;57;20976;-69
2023/11/01 11:06:39;;;;;;;2.97;1.17;;;17.30;74.20;;;;;;2208693;57;21829;-69
2023/11/01 11:09:24;;;;;;;2.50;1.00;;;17.40;75.00;;;;;;2208455;59;20970;-69
2023/11/01 11:12:24;;;;;;;2.58;0.98;;;17.50;74.40;;;;;;2211883;58;20967;-70
2023/11/01 11:14:50;;;;;;;3.42;1.40;;;17.50;74.40;;;;;;2208953;58;21690;-68
2023/11/01 11:17:18;;;;;;;3.25;1.37;;;17.50;75.40;;;;;;2421010;56;21031;-70
2023/11/01 11:20:19;;;;;;;4.70;1.27;;;17.60;75.40;;;;;;2204610;57;21818;-69
2023/11/01 11:23:17;;;;;;;3.28;1.20;;;17.60;74.50;;;;;;2418528;56;20953;-73
2023/11/01 11:25:45;;;;;;;3.20;1.23;;;17.60;74.30;;;;;;2205171;57;21969;-69
2023/11/01 11:29:41;;;;;;;2.28;1.00;;;17.70;75.20;;;;;;2425807;57;20966;-69
2023/11/01 11:32:16;;;;;;;1.58;0.60;;;17.70;73.80;;;;;;2207907;59;20989;-69
2023/11/01 11:34:43;;;;;;;2.40;1.05;;;17.70;74.80;;;;;;2209031;58;20954;-70
2023/11/01 11:37:12;;;;;;;4.07;0.82;;;17.80;75.20;;;;;;2208514;59;20974;-69
2023/11/01 11:40:02;;;;;;;2.50;0.88;;;17.80;75.00;;;;;;2209005;58;21013;-72
2023/11/01 11:42:50;;;;;;;1.65;0.62;;;17.80;73.80;;;;;;2426683;56;21771;-68
2023/11/01 11:45:26;;;;;;;3.50;0.80;;;17.90;73.80;;;;;;2426629;57;20951;-69
2023/11/01 11:47:54;;;;;;;2.15;0.60;;;17.90;74.10;;;;;;2208065;58;20978;-69
2023/11/01 11:50:20;;;;;;;1.33;0.40;;;17.90;74.40;;;;;;2208974;59;20973;-69
2023/11/01 11:52:47;;;;;;;2.15;0.47;;;17.90;74.20;;;;;;2426240;57;21856;-69
2023/11/01 11:55:13;;;;;;;1.33;0.50;;;17.90;74.00;;;;;;2206602;57;20962;-70
2023/11/01 11:57:40;;;;;;;1.02;0.40;;;17.90;73.90;;;;;;2423064;56;21898;-69
2023/11/01 12:00:11;;;;;;;1.67;0.30;;;17.90;73.90;;;;;;2204095;57;20991;-71
2023/11/01 12:02:37;;;;;;;1.42;0.30;;;18.00;74.20;;;;;;2426709;57;20981;-69
2023/11/01 12:05:04;;;;;;;2.08;0.30;;;18.00;74.10;;;;;;2208282;59;20946;-69
2023/11/01 12:07:30;;;;;;;1.62;0.45;;;18.00;74.00;;;;;;2423108;57;21280;-69
2023/11/01 12:09:57;;;;;;;1.67;0.45;;;18.10;74.00;;;;;;2202065;57;21001;-71
2023/11/01 12:12:24;;;;;;;3.03;0.40;;;18.10;74.00;;;;;;2207887;59;21041;-72
2023/11/01 12:15:00;;;;;;;5.20;0.40;;;18.10;73.80;;;;;;2209238;58;20973;-70
2023/11/01 12:17:27;;;;;;;1.58;0.40;;;18.20;73.20;;;;;;2208326;59;21436;-68
2023/11/01 12:19:53;;;;;;;2.58;0.62;;;18.20;73.80;;;;;;2209038;59;20983;-70
2023/11/01 12:22:20;;;;;;;3.17;0.90;;;18.20;73.80;;;;;;2425930;57;21438;-69
2023/11/01 12:24:51;;;;;;;2.40;0.73;;;18.20;73.90;;;;;;2208458;57;21310;-69
2023/11/01 12:27:18;;;;;;;2.17;0.82;;;18.30;74.00;;;;;;2203781;57;20946;-69
2023/11/01 12:29:49;;;;;;;2.45;0.60;;;18.30;74.10;;;;;;2212037;58;20977;-69
2023/11/01 12:32:41;;;;;;;1.83;0.60;;;18.40;73.60;;;;;;2204191;57;20999;-71
2023/11/01 12:35:09;;;;;;;1.15;0.30;;;18.40;72.10;;;;;;2207270;57;20961;-71
2023/11/01 12:37:35;;;;;;;3.47;0.82;;;18.40;73.80;;;;;;2416065;56;21075;-72
2023/11/01 12:40:12;;;;;;;1.92;0.50;;;18.40;73.70;;;;;;2425914;57;21045;-69
2023/11/01 12:42:42;;;;;;;1.08;0.40;;;18.50;72.50;;;;;;2203211;57;21538;-69
2023/11/01 12:45:08;;;;;;;2.55;0.47;;;18.50;73.20;;;;;;2424585;56;20950;-69
2023/11/01 12:47:54;;;;;;;0.47;0.20;;;18.50;73.60;;;;;;2210725;58;20987;-71
2023/11/01 12:50:28;;;;;;;1.58;0.50;;;18.50;72.40;;;;;;2425964;57;20974;-71
2023/11/01 12:52:55;;;;;;;0.95;0.32;;;18.60;73.00;;;;;;2208843;59;20998;-71
2023/11/01 12:55:22;;;;;;;0.80;0.40;;;18.60;73.60;;;;;;2208302;59;20982;-70
2023/11/01 12:58:07;;;;;;;1.60;0.52;;;18.60;73.50;;;;;;2212143;59;22267;-77
2023/11/01 13:00:37;;;;;;;2.08;0.62;;;18.60;71.80;;;;;;2416963;56;21160;-71
2023/11/01 13:03:03;;;;;;;2.00;0.60;;;18.60;73.30;;;;;;2419791;56;20990;-68
2023/11/01 13:05:30;;;;;;;1.02;0.40;;;18.60;73.30;;;;;;2208721;58;21176;-73
2023/11/01 13:08:00;;;;;;;1.23;0.45;;;18.60;73.30;;;;;;2208396;58;20950;-73